createdAt,value
2018-12-27T00:01:15.904Z,290.00
2018-12-27T00:03:45.577Z,282.70
2018-12-27T00:06:14.457Z,282.07
2018-12-27T00:08:47.543Z,282.57
2018-12-27T00:11:16.358Z,291.33
2018-12-27T00:13:50.323Z,280.03
2018-12-27T00:16:19.407Z,279.40
2018-12-27T00:18:47.194Z,293.07
2018-12-27T00:21:16.770Z,277.37
2018-12-27T00:23:44.848Z,289.73
2018-12-27T00:26:12.851Z,294.43
2018-12-27T00:28:40.917Z,293.77
2018-12-27T00:31:08.682Z,304.37
2018-12-27T00:33:39.214Z,283.33
2018-12-27T00:36:06.933Z,281.67
2018-12-27T00:38:34.701Z,281.00
2018-12-27T00:41:03.228Z,268.97
2018-12-27T00:43:30.956Z,252.80
2018-12-27T00:46:00.156Z,267.60
2018-12-27T00:48:27.906Z,253.40
2018-12-27T00:50:56.111Z,248.30
2018-12-27T00:53:24.068Z,258.17
2018-12-27T00:55:51.832Z,245.13
2018-12-27T00:58:19.600Z,265.37
2018-12-27T01:00:50.251Z,259.97
2018-12-27T01:03:20.371Z,268.00
2018-12-27T01:05:49.252Z,264.00
2018-12-27T01:08:19.099Z,244.13
2018-12-27T01:10:46.788Z,253.93
2018-12-27T01:13:14.475Z,250.00
2018-12-27T01:15:42.149Z,223.10
2018-12-27T01:18:14.236Z,230.13
2018-12-27T01:20:42.306Z,241.57
2018-12-27T01:23:10.195Z,241.27
2018-12-27T01:25:37.985Z,232.57
2018-12-27T01:28:06.193Z,230.17
2018-12-27T01:30:33.879Z,237.37
2018-12-27T01:33:01.615Z,232.53
2018-12-27T01:35:30.822Z,238.20
2018-12-27T01:38:01.955Z,232.53
2018-12-27T01:40:31.048Z,232.03
2018-12-27T01:42:58.831Z,240.47
2018-12-27T01:45:26.634Z,231.87
2018-12-27T01:47:57.060Z,238.90
2018-12-27T01:50:24.815Z,232.80
2018-12-27T01:52:52.661Z,252.47
2018-12-27T01:55:22.598Z,256.33
2018-12-27T01:57:52.673Z,227.37
2018-12-27T02:00:21.826Z,236.47
2018-12-27T02:02:54.457Z,241.80
2018-12-27T02:05:22.649Z,253.83
2018-12-27T02:07:50.401Z,247.07
2018-12-27T02:10:18.157Z,260.03
2018-12-27T02:12:48.516Z,252.53
2018-12-27T02:15:19.425Z,237.07
2018-12-27T02:17:47.183Z,242.43
2018-12-27T02:20:15.557Z,232.30
2018-12-27T02:22:43.314Z,237.47
2018-12-27T02:25:14.410Z,231.80
2018-12-27T02:27:42.201Z,236.77
2018-12-27T02:30:10.071Z,245.20
2018-12-27T02:32:42.813Z,259.50
2018-12-27T02:35:10.406Z,236.93
2018-12-27T02:37:38.116Z,248.57
2018-12-27T02:40:08.797Z,241.80
2018-12-27T02:42:36.731Z,258.17
2018-12-27T02:45:04.444Z,267.40
2018-12-27T02:47:32.196Z,279.97
2018-12-27T02:50:07.122Z,281.70
2018-12-27T02:52:38.612Z,265.57
2018-12-27T02:55:06.643Z,260.13
2018-12-27T02:57:36.590Z,257.13
2018-12-27T03:00:08.704Z,239.87
2018-12-27T03:02:36.539Z,238.30
2018-12-27T03:05:04.621Z,239.70
2018-12-27T03:07:33.598Z,242.40
2018-12-27T03:10:01.536Z,249.20
2018-12-27T03:12:29.291Z,239.53
2018-12-27T03:14:58.291Z,261.27
2018-12-27T03:17:26.414Z,257.13
2018-12-27T03:19:57.238Z,256.40
2018-12-27T03:22:25.320Z,248.57
2018-12-27T03:24:52.985Z,238.27
2018-12-27T03:27:20.703Z,254.80
2018-12-27T03:29:49.368Z,259.10
2018-12-27T03:32:17.292Z,247.07
2018-12-27T03:34:47.338Z,258.27
2018-12-27T03:37:15.220Z,267.50
2018-12-27T03:39:42.991Z,260.07
2018-12-27T03:42:10.755Z,251.47
2018-12-27T03:44:40.869Z,259.33
2018-12-27T03:47:08.732Z,264.20
2018-12-27T03:49:38.765Z,259.57
2018-12-27T03:52:06.558Z,263.83
2018-12-27T03:54:37.333Z,282.20
2018-12-27T03:57:05.188Z,256.97
2018-12-27T03:59:33.069Z,260.00
2018-12-27T04:02:01.217Z,270.83
2018-12-27T04:04:29.140Z,260.17
2018-12-27T04:06:57.277Z,279.20
2018-12-27T04:09:25.419Z,270.37
2018-12-27T04:11:53.447Z,263.90
2018-12-27T04:14:21.209Z,271.50
2018-12-27T04:16:49.631Z,280.37
2018-12-27T04:19:19.660Z,290.40
2018-12-27T04:21:47.420Z,295.87
2018-12-27T04:24:19.463Z,292.80
2018-12-27T04:26:47.263Z,290.83
2018-12-27T04:29:14.985Z,288.17
2018-12-27T04:31:43.194Z,269.87
2018-12-27T04:34:11.211Z,257.53
2018-12-27T04:36:39.511Z,252.23
2018-12-27T04:39:07.175Z,275.47
2018-12-27T04:41:36.225Z,279.03
2018-12-27T04:44:07.597Z,270.47
2018-12-27T04:46:35.395Z,255.70
2018-12-27T04:49:03.275Z,257.57
2018-12-27T04:51:31.325Z,254.73
2018-12-27T04:53:59.092Z,256.97
2018-12-27T04:56:29.512Z,243.40
2018-12-27T04:58:57.633Z,247.17
2018-12-27T05:01:53.833Z,261.47
2018-12-27T05:04:21.467Z,258.53
2018-12-27T05:06:49.495Z,260.53
2018-12-27T05:09:17.170Z,253.10
2018-12-27T05:11:45.183Z,260.83
2018-12-27T05:14:12.752Z,265.90
2018-12-27T05:16:40.402Z,255.37
2018-12-27T05:19:17.284Z,276.20
2018-12-27T05:21:45.643Z,277.13
2018-12-27T05:24:13.883Z,276.10
2018-12-27T05:26:41.629Z,369.60
2018-12-27T05:29:09.614Z,308.27
2018-12-27T05:31:37.819Z,277.97
2018-12-27T05:34:05.910Z,270.53
2018-12-27T05:36:33.768Z,274.93
2018-12-27T05:39:01.845Z,277.87
2018-12-27T05:41:30.121Z,276.40
2018-12-27T05:43:58.185Z,272.67
2018-12-27T05:46:26.070Z,253.90
2018-12-27T05:48:53.952Z,276.13
2018-12-27T05:51:23.716Z,256.53
2018-12-27T05:53:54.141Z,259.47
2018-12-27T05:56:23.870Z,255.47
2018-12-27T05:58:51.628Z,246.50
2018-12-27T06:01:19.619Z,254.27
2018-12-27T06:03:48.461Z,265.93
2018-12-27T06:06:16.557Z,274.93
2018-12-27T06:08:44.348Z,256.57
2018-12-27T06:11:14.395Z,240.13
2018-12-27T06:13:42.483Z,232.23
2018-12-27T06:16:11.043Z,232.27
2018-12-27T06:18:40.005Z,243.47
2018-12-27T06:21:09.986Z,188.70
2018-12-27T06:26:04.982Z,228.37
2018-12-27T06:28:36.719Z,230.90
2018-12-27T06:31:04.525Z,224.23
2018-12-27T06:33:33.532Z,233.30
2018-12-27T06:36:01.405Z,215.27
2018-12-27T06:38:31.213Z,219.37
2018-12-27T06:40:59.069Z,214.60
2018-12-27T06:43:27.504Z,218.67
2018-12-27T06:45:55.547Z,230.10
2018-12-27T06:48:43.831Z,229.30
2018-12-27T06:51:12.078Z,222.13
2018-12-27T06:53:40.106Z,207.20
2018-12-27T06:56:09.110Z,228.03
2018-12-27T06:58:37.855Z,237.37
2018-12-27T07:01:06.007Z,227.97
2018-12-27T07:03:34.085Z,227.30
2018-12-27T07:06:01.900Z,222.57
2018-12-27T07:08:30.048Z,240.43
2018-12-27T07:10:57.778Z,260.67
2018-12-27T07:13:26.277Z,242.87
2018-12-27T07:16:04.160Z,247.00
2018-12-27T07:18:31.916Z,233.03
2018-12-27T07:20:59.745Z,240.37
2018-12-27T07:23:29.412Z,245.60
2018-12-27T07:25:57.145Z,256.13
2018-12-27T07:28:25.127Z,226.33
2018-12-27T07:30:53.252Z,242.17
2018-12-27T07:33:21.495Z,257.97
2018-12-27T07:35:52.959Z,249.17
2018-12-27T07:38:20.986Z,247.57
2018-12-27T07:40:48.856Z,235.97
2018-12-27T07:43:20.997Z,229.93
2018-12-27T07:45:49.186Z,254.87
2018-12-27T07:48:18.883Z,244.20
2018-12-27T07:50:48.846Z,233.30
2018-12-27T07:53:17.060Z,244.00
2018-12-27T07:55:47.038Z,219.70
2018-12-27T07:58:14.957Z,222.53
2018-12-27T08:00:42.683Z,213.70
2018-12-27T08:03:13.659Z,222.60
2018-12-27T08:05:44.533Z,233.23
2018-12-27T08:08:12.780Z,230.10
2018-12-27T08:10:40.788Z,242.33
2018-12-27T08:13:10.590Z,218.30
2018-12-27T08:15:38.351Z,224.00
2018-12-27T08:18:06.573Z,213.70
2018-12-27T08:20:34.444Z,219.43
2018-12-27T08:23:02.715Z,210.83
2018-12-27T08:25:30.719Z,204.17
2018-12-27T08:27:58.461Z,210.30
2018-12-27T08:30:26.234Z,199.77
2018-12-27T08:32:54.298Z,197.03
2018-12-27T08:35:23.979Z,185.97
2018-12-27T08:37:51.863Z,178.73
2018-12-27T08:40:19.612Z,181.10
2018-12-27T08:42:47.322Z,164.70
2018-12-27T08:45:15.180Z,162.17
2018-12-27T08:47:42.947Z,154.03
2018-12-27T08:50:10.868Z,136.87
2018-12-27T08:52:38.704Z,126.97
2018-12-27T08:55:06.512Z,128.27
2018-12-27T08:57:34.988Z,136.53
2018-12-27T09:00:07.542Z,133.77
2018-12-27T09:02:36.402Z,124.37
2018-12-27T09:05:04.719Z,125.73
2018-12-27T09:07:32.632Z,122.77
2018-12-27T09:10:02.468Z,124.00
2018-12-27T09:12:30.306Z,116.63
2018-12-27T09:14:58.165Z,108.70
2018-12-27T09:17:26.109Z,108.67
2018-12-27T09:19:53.991Z,105.60
2018-12-27T09:22:23.686Z,108.97
2018-12-27T09:24:51.460Z,95.63
2018-12-27T09:27:19.183Z,105.47
2018-12-27T09:29:46.930Z,84.90
2018-12-27T09:32:14.924Z,92.20
2018-12-27T09:34:42.696Z,82.73
2018-12-27T09:37:10.692Z,76.47
2018-12-27T09:39:38.743Z,66.37
2018-12-27T09:42:07.623Z,64.37
2018-12-27T09:44:35.499Z,57.30
2018-12-27T09:47:03.362Z,46.47
2018-12-27T09:49:31.315Z,48.70
2018-12-27T09:52:02.178Z,44.77
2018-12-27T09:54:39.384Z,42.80
2018-12-27T09:57:09.710Z,37.97
2018-12-27T09:59:37.474Z,35.07
2018-12-27T10:02:05.616Z,31.57
2018-12-27T10:04:35.805Z,31.07
2018-12-27T10:07:03.643Z,31.87
2018-12-27T10:09:32.055Z,26.87
2018-12-27T10:12:00.050Z,23.23
2018-12-27T10:14:27.993Z,26.93
2018-12-27T10:16:55.817Z,23.87
2018-12-27T10:19:23.685Z,30.23
2018-12-27T10:21:51.478Z,32.97
2018-12-27T10:24:19.453Z,26.57
2018-12-27T10:26:47.719Z,25.67
2018-12-27T10:29:15.788Z,25.53
2018-12-27T10:31:44.670Z,26.53
2018-12-27T10:34:12.750Z,27.17
2018-12-27T10:36:44.923Z,25.23
2018-12-27T10:39:12.699Z,27.70
2018-12-27T10:41:40.677Z,25.03
2018-12-27T10:44:08.513Z,27.10
2018-12-27T10:46:36.592Z,24.60
2018-12-27T10:49:04.440Z,20.47
2018-12-27T10:51:32.955Z,24.87
2018-12-27T10:54:01.469Z,23.27
2018-12-27T10:56:29.224Z,21.07
2018-12-27T10:59:00.338Z,25.00
2018-12-27T11:01:28.363Z,26.63
2018-12-27T11:04:01.899Z,22.23
2018-12-27T11:06:29.636Z,22.00
2018-12-27T11:08:58.541Z,25.13
2018-12-27T11:11:26.372Z,20.23
2018-12-27T11:13:55.167Z,24.77
2018-12-27T11:16:23.045Z,23.93
2018-12-27T11:18:51.109Z,19.20
2018-12-27T11:21:19.240Z,22.57
2018-12-27T11:23:46.984Z,25.60
2018-12-27T11:26:17.989Z,28.63
2018-12-27T11:28:49.101Z,36.23
2018-12-27T11:31:16.875Z,25.77
2018-12-27T11:33:48.000Z,25.10
2018-12-27T11:36:17.409Z,22.37
2018-12-27T11:38:45.683Z,26.10
2018-12-27T11:41:13.857Z,24.93
2018-12-27T11:43:41.961Z,28.57
2018-12-27T11:46:13.443Z,24.37
2018-12-27T11:48:43.758Z,25.20
2018-12-27T11:51:15.665Z,26.60
2018-12-27T11:53:43.701Z,22.70
2018-12-27T11:56:11.479Z,24.70
2018-12-27T11:58:39.203Z,25.87
2018-12-27T12:01:07.320Z,25.37
2018-12-27T12:03:35.395Z,29.33
2018-12-27T12:06:04.544Z,27.43
2018-12-27T12:08:32.305Z,28.07
2018-12-27T12:11:01.252Z,27.87
2018-12-27T12:13:29.421Z,26.53
2018-12-27T12:15:58.977Z,29.70
2018-12-27T12:18:26.801Z,26.00
2018-12-27T12:20:54.928Z,24.13
2018-12-27T12:23:22.741Z,23.17
2018-12-27T12:25:51.963Z,26.10
2018-12-27T12:28:20.037Z,23.63
2018-12-27T12:30:47.791Z,22.03
2018-12-27T12:33:15.531Z,24.03
2018-12-27T12:35:43.301Z,20.63
2018-12-27T12:38:11.036Z,24.57
2018-12-27T12:40:38.769Z,21.37
2018-12-27T12:43:06.603Z,20.40
2018-12-27T12:45:35.630Z,18.07
2018-12-27T12:48:04.729Z,19.87
2018-12-27T12:50:32.486Z,21.53
2018-12-27T12:53:01.127Z,17.40
2018-12-27T12:55:30.766Z,21.80
2018-12-27T12:57:58.478Z,20.90
2018-12-27T13:00:29.667Z,22.43
2018-12-27T13:02:58.597Z,22.30
2018-12-27T13:05:26.341Z,20.60
2018-12-27T13:07:54.093Z,20.97
2018-12-27T13:10:22.229Z,24.37
2018-12-27T13:12:51.362Z,23.23
2018-12-27T13:15:19.017Z,25.40
2018-12-27T13:17:48.196Z,22.70
2018-12-27T13:20:15.943Z,20.77
2018-12-27T13:22:43.695Z,17.37
2018-12-27T13:25:11.834Z,18.70
2018-12-27T13:27:39.672Z,21.40
2018-12-27T13:30:07.749Z,20.37
2018-12-27T13:32:36.565Z,22.23
2018-12-27T13:35:06.890Z,20.73
2018-12-27T13:37:35.786Z,22.83
2018-12-27T13:40:06.429Z,24.10
2018-12-27T13:42:36.021Z,20.90
2018-12-27T13:45:04.007Z,22.23
2018-12-27T13:47:31.862Z,21.10
2018-12-27T13:49:59.840Z,22.53
2018-12-27T13:52:27.948Z,22.20
2018-12-27T13:54:57.711Z,22.80
2018-12-27T13:57:25.486Z,24.10
2018-12-27T13:59:53.249Z,18.87
2018-12-27T14:02:20.996Z,22.20
2018-12-27T14:04:49.217Z,20.30
2018-12-27T14:07:16.957Z,21.90
2018-12-27T14:09:44.727Z,22.43
2018-12-27T14:12:15.567Z,20.10
2018-12-27T14:14:42.538Z,24.90
2018-12-27T14:17:13.799Z,21.20
2018-12-27T14:19:41.566Z,23.80
2018-12-27T14:22:09.347Z,23.03
2018-12-27T14:24:37.257Z,21.80
2018-12-27T14:27:27.644Z,25.40
2018-12-27T14:29:58.697Z,23.70
2018-12-27T14:32:31.594Z,22.53
2018-12-27T14:35:01.623Z,24.97
2018-12-27T14:37:31.229Z,22.73
2018-12-27T14:39:58.943Z,27.47
2018-12-27T14:42:26.819Z,26.83
2018-12-27T14:44:55.630Z,24.60
2018-12-27T14:47:25.324Z,30.53
2018-12-27T14:49:55.298Z,23.20
2018-12-27T14:52:23.043Z,24.87
2018-12-27T14:54:52.714Z,27.80
2018-12-27T14:57:20.594Z,30.33
2018-12-27T14:59:48.738Z,27.47
2018-12-27T15:02:16.487Z,27.57
2018-12-27T15:04:47.231Z,26.37
2018-12-27T15:07:16.093Z,27.73
2018-12-27T15:09:45.045Z,24.90
2018-12-27T15:12:14.792Z,23.43
2018-12-27T15:14:43.053Z,25.97
2018-12-27T15:17:11.387Z,27.10
2018-12-27T15:19:39.453Z,25.60
2018-12-27T15:22:11.831Z,25.67
2018-12-27T15:24:39.632Z,30.60
2018-12-27T15:27:08.823Z,30.60
2018-12-27T15:29:37.687Z,32.80
2018-12-27T15:32:06.068Z,38.80
2018-12-27T15:34:33.785Z,35.03
2018-12-27T15:37:01.578Z,30.40
2018-12-27T15:39:32.227Z,33.40
2018-12-27T15:42:00.165Z,29.53
2018-12-27T15:44:28.169Z,25.53
2018-12-27T15:46:56.016Z,28.20
2018-12-27T15:49:23.977Z,24.80
2018-12-27T15:51:54.330Z,28.20
2018-12-27T15:54:22.333Z,32.27
2018-12-27T15:56:50.414Z,31.90
2018-12-27T15:59:18.368Z,34.90
2018-12-27T16:01:50.458Z,30.93
2018-12-27T16:04:18.183Z,35.37
2018-12-27T16:06:46.875Z,33.83
2018-12-27T16:09:14.624Z,30.77
2018-12-27T16:11:42.692Z,32.83
2018-12-27T16:14:10.493Z,31.43
2018-12-27T16:16:38.425Z,32.23
2018-12-27T16:19:06.196Z,32.67
2018-12-27T16:21:34.272Z,33.27
2018-12-27T16:24:03.532Z,30.73
2018-12-27T16:26:33.160Z,31.43
2018-12-27T16:29:09.749Z,34.87
2018-12-27T16:31:38.577Z,33.77
2018-12-27T16:34:06.365Z,49.23
2018-12-27T16:36:34.360Z,53.55
2018-12-27T16:39:05.195Z,41.20
2018-12-27T16:41:32.929Z,33.83
2018-12-27T16:44:01.118Z,31.47
2018-12-27T16:46:29.413Z,32.30
2018-12-27T16:48:58.890Z,38.33
2018-12-27T16:51:29.779Z,36.10
2018-12-27T16:53:58.135Z,33.73
2018-12-27T16:56:25.750Z,36.07
2018-12-27T16:58:55.959Z,33.20
2018-12-27T17:01:24.074Z,29.37
2018-12-27T17:03:52.027Z,27.70
2018-12-27T17:06:19.758Z,32.00
2018-12-27T17:08:47.553Z,33.83
2018-12-27T17:11:15.268Z,40.00
2018-12-27T17:13:43.385Z,51.27
2018-12-27T17:16:13.156Z,37.27
2018-12-27T17:18:41.068Z,33.27
2018-12-27T17:21:11.824Z,28.85
2018-12-27T17:23:39.631Z,29.33
2018-12-27T17:26:07.607Z,29.00
2018-12-27T17:28:35.394Z,30.67
2018-12-27T17:31:03.122Z,28.30
2018-12-27T17:33:33.165Z,30.37
2018-12-27T17:36:00.875Z,26.97
2018-12-27T17:38:32.289Z,30.20
2018-12-27T17:41:00.010Z,27.30
2018-12-27T17:43:29.499Z,28.70
2018-12-27T17:45:57.500Z,32.27
2018-12-27T17:48:25.523Z,31.27
2018-12-27T17:50:55.637Z,26.40
2018-12-27T17:53:23.723Z,26.07
2018-12-27T17:55:51.844Z,31.23
2018-12-27T17:58:21.982Z,28.97
2018-12-27T18:00:50.159Z,30.87
2018-12-27T18:03:19.237Z,31.23
2018-12-27T18:05:46.994Z,30.17
2018-12-27T18:08:15.366Z,29.93
2018-12-27T18:10:46.212Z,32.97
2018-12-27T18:13:13.863Z,28.90
2018-12-27T18:15:41.899Z,30.10
2018-12-27T18:18:09.975Z,29.80
2018-12-27T18:20:37.640Z,29.90
2018-12-27T18:23:06.294Z,29.57
2018-12-27T18:25:34.045Z,28.57
2018-12-27T18:28:07.873Z,30.30
2018-12-27T18:30:36.050Z,28.70
2018-12-27T18:33:15.698Z,32.70
2018-12-27T18:35:44.156Z,36.13
2018-12-27T18:38:12.627Z,33.37
2018-12-27T18:40:40.620Z,39.57
2018-12-27T18:43:08.635Z,32.33
2018-12-27T18:45:38.366Z,36.23
2018-12-27T18:48:06.114Z,35.30
2018-12-27T18:50:34.215Z,42.00
2018-12-27T18:53:02.017Z,43.37
2018-12-27T18:55:33.866Z,41.93
2018-12-27T18:58:01.949Z,52.80
2018-12-27T19:00:29.866Z,75.33
2018-12-27T19:02:57.574Z,48.67
2018-12-27T19:05:25.391Z,46.47
2018-12-27T19:07:55.668Z,44.90
2018-12-27T19:10:23.960Z,42.93
2018-12-27T19:13:05.187Z,43.05
2018-12-27T19:15:41.446Z,42.67
2018-12-27T19:18:14.011Z,40.97
2018-12-27T19:20:42.436Z,40.73
2018-12-27T19:23:15.742Z,44.80
2018-12-27T19:25:43.360Z,46.73
2018-12-27T19:28:11.073Z,53.00
2018-12-27T19:30:38.750Z,47.83
2018-12-27T19:33:06.423Z,46.77
2018-12-27T19:35:34.115Z,45.37
2018-12-27T19:38:03.375Z,47.33
2018-12-27T19:40:35.049Z,41.70
2018-12-27T19:43:02.590Z,41.87
2018-12-27T19:45:30.301Z,47.27
2018-12-27T19:48:00.531Z,49.97
2018-12-27T19:50:28.355Z,42.23
2018-12-27T19:52:56.048Z,39.53
2018-12-27T19:55:24.172Z,40.67
2018-12-27T19:57:51.960Z,42.57
2018-12-27T20:00:19.688Z,42.17
2018-12-27T20:02:52.021Z,43.43
2018-12-27T20:05:19.852Z,43.93
2018-12-27T20:07:47.584Z,45.57
2018-12-27T20:10:15.538Z,47.13
2018-12-27T20:12:43.276Z,47.47
2018-12-27T20:15:10.981Z,50.33
2018-12-27T20:17:39.730Z,48.23
2018-12-27T20:20:07.414Z,49.67
2018-12-27T20:22:35.486Z,45.50
2018-12-27T20:25:03.566Z,43.87
2018-12-27T20:27:31.219Z,47.17
2018-12-27T20:29:59.780Z,39.10
2018-12-27T20:32:29.604Z,50.60
2018-12-27T20:34:57.494Z,47.13
2018-12-27T20:37:25.331Z,41.77
2018-12-27T20:39:53.403Z,48.07
2018-12-27T20:42:24.195Z,47.23
2018-12-27T20:44:53.064Z,52.80
2018-12-27T20:47:20.728Z,45.63
2018-12-27T20:49:49.626Z,53.17
2018-12-27T20:52:17.289Z,54.87
2018-12-27T20:54:45.503Z,58.23
2018-12-27T20:57:13.396Z,56.47
2018-12-27T20:59:41.081Z,57.63
2018-12-27T21:02:08.901Z,57.23
2018-12-27T21:04:36.907Z,58.77
2018-12-27T21:07:05.257Z,56.10
2018-12-27T21:09:36.905Z,55.40
2018-12-27T21:12:04.933Z,53.07
2018-12-27T21:14:32.590Z,52.53
2018-12-27T21:17:00.305Z,51.97
2018-12-27T21:19:28.371Z,51.63
2018-12-27T21:22:01.697Z,56.30
2018-12-27T21:24:32.888Z,52.50
2018-12-27T21:27:02.088Z,58.77
2018-12-27T21:29:30.296Z,55.97
2018-12-27T21:31:57.977Z,58.23
2018-12-27T21:34:28.986Z,58.90
2018-12-27T21:36:56.646Z,62.33
2018-12-27T21:39:27.683Z,58.97
2018-12-27T21:42:00.873Z,59.20
2018-12-27T21:44:31.647Z,57.27
2018-12-27T21:46:59.872Z,56.47
2018-12-27T21:49:29.313Z,60.87
2018-12-27T21:51:57.720Z,64.17
2018-12-27T21:54:25.697Z,65.47
2018-12-27T21:56:53.388Z,64.13
2018-12-27T21:59:22.996Z,66.53
2018-12-27T22:01:56.595Z,63.67
2018-12-27T22:04:29.560Z,60.37
2018-12-27T22:06:57.327Z,59.10
2018-12-27T22:09:27.914Z,56.13
2018-12-27T22:11:55.824Z,59.83
2018-12-27T22:14:23.799Z,63.13
2018-12-27T22:16:52.571Z,63.07
2018-12-27T22:19:20.513Z,74.83
2018-12-27T22:21:49.047Z,80.57
2018-12-27T22:24:16.829Z,77.63
2018-12-27T22:26:46.658Z,68.17
2018-12-27T22:29:17.440Z,81.30
2018-12-27T22:31:45.099Z,85.03
2018-12-27T22:34:12.786Z,76.13
2018-12-27T22:36:40.698Z,85.23
2018-12-27T22:39:08.462Z,79.90
2018-12-27T22:41:36.152Z,82.67
2018-12-27T22:44:07.501Z,78.00
2018-12-27T22:46:37.418Z,83.20
2018-12-27T22:49:05.078Z,82.77
2018-12-27T22:51:32.896Z,78.97
2018-12-27T22:54:00.907Z,68.10
2018-12-27T22:56:32.841Z,73.13
2018-12-27T22:59:03.452Z,66.07
2018-12-27T23:01:31.112Z,67.73
2018-12-27T23:04:01.186Z,62.20
2018-12-27T23:06:33.853Z,59.27
2018-12-27T23:09:01.597Z,64.27
2018-12-27T23:11:31.146Z,67.80
2018-12-27T23:13:58.816Z,71.17
2018-12-27T23:16:27.275Z,67.73
2018-12-27T23:18:56.027Z,69.50
2018-12-27T23:21:23.717Z,92.23
2018-12-27T23:23:55.446Z,92.67
2018-12-27T23:26:23.311Z,108.07
2018-12-27T23:28:51.348Z,97.80
2018-12-27T23:31:21.291Z,96.70
2018-12-27T23:36:34.134Z,97.77
2018-12-27T23:39:01.775Z,95.50
2018-12-27T23:41:29.747Z,96.90
2018-12-27T23:43:57.543Z,90.10
2018-12-27T23:46:28.894Z,101.10
2018-12-27T23:48:56.593Z,95.47
2018-12-27T23:51:24.257Z,109.97
2018-12-27T23:53:51.933Z,116.13
2018-12-27T23:56:20.019Z,115.03
2018-12-27T23:58:52.083Z,123.77
